createdAt,value
2017-12-23T00:00:16.721Z,63.10
2017-12-23T00:02:44.984Z,63.00
2017-12-23T00:05:13.280Z,63.10
2017-12-23T00:07:41.542Z,63.10
2017-12-23T00:10:09.862Z,63.10
2017-12-23T00:12:38.131Z,63.10
2017-12-23T00:15:06.694Z,63.20
2017-12-23T00:17:34.961Z,63.20
2017-12-23T00:20:03.272Z,63.10
2017-12-23T00:22:31.532Z,63.30
2017-12-23T00:24:59.826Z,63.20
2017-12-23T00:27:28.146Z,63.20
2017-12-23T00:29:56.430Z,63.20
2017-12-23T00:32:24.996Z,63.10
2017-12-23T00:34:53.242Z,63.20
2017-12-23T00:37:21.537Z,63.50
2017-12-23T00:39:49.836Z,63.40
2017-12-23T00:42:18.121Z,63.60
2017-12-23T00:44:46.401Z,63.50
2017-12-23T00:47:14.808Z,63.30
2017-12-23T00:49:43.080Z,63.50
2017-12-23T00:52:11.349Z,63.50
2017-12-23T00:54:39.668Z,63.50
2017-12-23T00:57:07.907Z,63.50
2017-12-23T00:59:36.564Z,63.70
2017-12-23T01:02:04.805Z,63.60
2017-12-23T01:04:33.504Z,63.70
2017-12-23T01:07:01.805Z,63.70
2017-12-23T01:09:30.097Z,63.70
2017-12-23T01:11:59.144Z,63.90
2017-12-23T01:14:27.426Z,63.90
2017-12-23T01:16:55.715Z,64.10
2017-12-23T01:19:24.894Z,64.30
2017-12-23T01:21:53.449Z,64.30
2017-12-23T01:24:21.720Z,64.30
2017-12-23T01:26:50.010Z,64.60
2017-12-23T01:29:18.348Z,64.60
2017-12-23T01:31:46.631Z,64.60
2017-12-23T01:34:14.944Z,64.70
2017-12-23T01:36:43.706Z,64.80
2017-12-23T01:39:12.280Z,64.80
2017-12-23T01:41:40.563Z,64.80
2017-12-23T01:44:08.820Z,65.00
2017-12-23T01:46:37.904Z,64.90
2017-12-23T01:49:07.805Z,65.00
2017-12-23T01:51:36.190Z,65.00
2017-12-23T01:54:04.468Z,65.10
2017-12-23T01:56:32.768Z,65.00
2017-12-23T01:59:01.037Z,64.90
2017-12-23T02:01:29.331Z,64.80
2017-12-23T02:03:57.617Z,64.90
2017-12-23T02:06:25.862Z,64.90
2017-12-23T02:08:54.154Z,64.80
2017-12-23T02:11:22.444Z,64.80
2017-12-23T02:13:50.748Z,64.80
2017-12-23T02:16:19.037Z,64.80
2017-12-23T02:18:48.495Z,64.60
2017-12-23T02:21:16.780Z,64.70
2017-12-23T02:23:45.048Z,64.70
2017-12-23T02:26:13.337Z,64.50
2017-12-23T02:28:41.606Z,64.60
2017-12-23T02:31:09.904Z,64.60
2017-12-23T02:33:38.206Z,64.40
2017-12-23T02:36:07.653Z,64.50
2017-12-23T02:38:35.906Z,64.50
2017-12-23T02:41:04.179Z,64.50
2017-12-23T02:43:32.461Z,64.40
2017-12-23T02:46:00.721Z,64.20
2017-12-23T02:48:29.783Z,64.50
2017-12-23T02:50:58.056Z,64.40
2017-12-23T02:53:26.613Z,65.20
2017-12-23T02:55:55.177Z,64.40
2017-12-23T02:58:23.447Z,64.70
2017-12-23T03:00:51.749Z,64.60
2017-12-23T03:03:20.077Z,64.70
2017-12-23T03:05:49.505Z,64.80
2017-12-23T03:08:17.761Z,64.80
2017-12-23T03:10:46.330Z,64.80
2017-12-23T03:13:14.589Z,64.80
2017-12-23T03:15:42.853Z,64.90
2017-12-23T03:18:11.185Z,65.00
2017-12-23T03:20:39.437Z,65.10
2017-12-23T03:23:07.775Z,65.10
2017-12-23T03:25:36.771Z,65.30
2017-12-23T03:28:05.082Z,65.30
2017-12-23T03:30:33.343Z,65.40
2017-12-23T03:33:01.895Z,65.20
2017-12-23T03:35:30.921Z,65.40
2017-12-23T03:37:59.196Z,65.40
2017-12-23T03:40:28.432Z,65.40
2017-12-23T03:42:56.763Z,65.40
2017-12-23T03:45:25.087Z,65.30
2017-12-23T03:47:53.376Z,65.30
2017-12-23T03:50:22.429Z,65.10
2017-12-23T03:52:50.696Z,65.40
2017-12-23T03:55:19.309Z,65.50
2017-12-23T03:57:47.585Z,65.50
2017-12-23T04:00:15.866Z,65.50
2017-12-23T04:02:44.148Z,65.60
2017-12-23T04:05:12.415Z,65.70
2017-12-23T04:07:40.713Z,65.70
2017-12-23T04:10:09.001Z,65.70
2017-12-23T04:12:38.057Z,65.80
2017-12-23T04:15:06.321Z,65.80
2017-12-23T04:17:34.592Z,65.70
2017-12-23T04:20:02.889Z,65.60
2017-12-23T04:22:31.159Z,65.90
2017-12-23T04:24:59.498Z,65.90
2017-12-23T04:27:28.515Z,66.10
2017-12-23T04:29:57.070Z,66.10
2017-12-23T04:32:26.114Z,66.60
2017-12-23T04:34:54.386Z,66.50
2017-12-23T04:37:22.692Z,66.50
2017-12-23T04:39:50.961Z,66.70
2017-12-23T04:42:19.259Z,66.70
2017-12-23T04:44:47.531Z,66.90
2017-12-23T04:47:16.625Z,67.10
2017-12-23T04:49:44.900Z,67.00
2017-12-23T04:52:13.583Z,67.10
2017-12-23T04:54:42.895Z,67.10
2017-12-23T04:57:11.955Z,67.20
2017-12-23T04:59:40.295Z,67.20
2017-12-23T05:02:08.569Z,67.30
2017-12-23T05:04:37.673Z,67.40
2017-12-23T05:07:05.972Z,67.40
2017-12-23T05:09:34.595Z,67.30
2017-12-23T05:12:02.875Z,67.40
2017-12-23T05:14:31.174Z,67.30
2017-12-23T05:17:00.224Z,67.30
2017-12-23T05:19:28.490Z,67.30
2017-12-23T05:21:56.777Z,67.40
2017-12-23T05:24:25.038Z,67.40
2017-12-23T05:26:53.601Z,68.30
2017-12-23T05:29:21.876Z,67.60
2017-12-23T05:31:50.197Z,67.60
2017-12-23T05:34:18.480Z,67.60
2017-12-23T05:36:46.789Z,67.60
2017-12-23T05:39:15.848Z,67.80
2017-12-23T05:41:44.118Z,67.70
2017-12-23T05:44:12.435Z,67.80
2017-12-23T05:46:40.718Z,67.80
2017-12-23T05:49:10.047Z,67.70
2017-12-23T05:51:38.308Z,67.70
2017-12-23T05:54:06.587Z,67.80
2017-12-23T05:56:34.937Z,67.80
2017-12-23T05:59:03.210Z,67.90
2017-12-23T06:01:31.515Z,67.90
2017-12-23T06:04:00.555Z,68.00
2017-12-23T06:06:29.226Z,67.90
2017-12-23T06:08:57.488Z,68.00
2017-12-23T06:11:25.829Z,68.60
2017-12-23T06:13:54.092Z,67.90
2017-12-23T06:16:22.377Z,67.80
2017-12-23T06:18:50.676Z,67.80
2017-12-23T06:21:19.728Z,67.70
2017-12-23T06:23:48.308Z,67.70
2017-12-23T06:26:16.581Z,67.70
2017-12-23T06:28:44.882Z,67.70
2017-12-23T06:31:13.164Z,67.60
2017-12-23T06:33:41.445Z,67.60
2017-12-23T06:36:09.774Z,67.60
2017-12-23T06:38:38.054Z,67.60
2017-12-23T06:41:06.700Z,67.60
2017-12-23T06:43:35.046Z,67.60
2017-12-23T06:46:03.309Z,67.50
2017-12-23T06:48:31.610Z,67.40
2017-12-23T06:50:59.889Z,67.60
2017-12-23T06:53:28.195Z,67.40
2017-12-23T06:55:57.237Z,66.80
2017-12-23T06:58:25.969Z,67.30
2017-12-23T07:00:54.242Z,67.20
2017-12-23T07:03:22.517Z,67.20
2017-12-23T07:05:51.597Z,67.20
2017-12-23T07:08:19.886Z,67.20
2017-12-23T07:10:48.221Z,67.10
2017-12-23T07:13:16.501Z,67.00
2017-12-23T07:15:45.151Z,67.60
2017-12-23T07:18:13.498Z,67.00
2017-12-23T07:20:41.762Z,67.30
2017-12-23T07:23:10.089Z,67.20
2017-12-23T07:25:39.109Z,67.20
2017-12-23T07:28:07.404Z,67.20
2017-12-23T07:30:35.695Z,67.20
2017-12-23T07:33:03.999Z,67.10
2017-12-23T07:35:32.297Z,67.10
2017-12-23T07:38:01.656Z,67.00
2017-12-23T07:40:29.944Z,67.00
2017-12-23T07:42:58.246Z,67.00
2017-12-23T07:45:26.533Z,67.00
2017-12-23T07:47:54.817Z,66.90
2017-12-23T07:50:23.901Z,67.20
2017-12-23T07:52:52.254Z,66.90
2017-12-23T07:55:20.842Z,66.90
2017-12-23T07:57:49.120Z,66.90
2017-12-23T08:00:17.425Z,67.00
2017-12-23T08:02:46.521Z,66.80
2017-12-23T08:05:14.802Z,66.80
2017-12-23T08:07:43.142Z,66.70
2017-12-23T08:10:11.421Z,66.70
2017-12-23T08:12:39.701Z,66.50
2017-12-23T08:15:07.989Z,66.50
2017-12-23T08:17:36.563Z,66.50
2017-12-23T08:20:05.519Z,66.60
2017-12-23T08:22:33.792Z,66.20
2017-12-23T08:25:02.094Z,66.10
2017-12-23T08:27:30.450Z,66.00
2017-12-23T08:29:58.700Z,65.90
2017-12-23T08:32:26.977Z,65.90
2017-12-23T08:34:58.513Z,65.70
2017-12-23T08:37:26.786Z,65.60
2017-12-23T08:39:55.460Z,65.50
2017-12-23T08:42:23.740Z,65.30
2017-12-23T08:44:52.016Z,65.30
2017-12-23T08:47:20.357Z,65.30
2017-12-23T08:49:48.642Z,65.30
2017-12-23T08:52:16.961Z,65.60
2017-12-23T08:54:45.250Z,64.90
2017-12-23T08:57:14.114Z,64.50
2017-12-23T08:59:46.088Z,64.40
2017-12-23T09:02:14.711Z,64.40
2017-12-23T09:04:43.772Z,65.00
2017-12-23T09:07:12.033Z,64.00
2017-12-23T09:09:40.322Z,63.80
2017-12-23T09:12:08.614Z,63.60
2017-12-23T09:14:37.055Z,63.70
2017-12-23T09:17:05.369Z,63.50
2017-12-23T09:19:34.630Z,63.00
2017-12-23T09:22:03.648Z,62.80
2017-12-23T09:24:32.259Z,62.90
2017-12-23T09:27:00.549Z,62.80
2017-12-23T09:29:28.826Z,61.80
2017-12-23T09:31:57.139Z,61.50
2017-12-23T09:34:25.425Z,61.50
2017-12-23T09:36:53.768Z,61.70
2017-12-23T09:39:22.037Z,61.50
2017-12-23T09:41:50.346Z,61.30
2017-12-23T09:44:19.430Z,61.40
2017-12-23T09:46:47.989Z,61.20
2017-12-23T09:49:16.289Z,61.30
2017-12-23T09:51:44.640Z,61.10
2017-12-23T09:54:12.962Z,61.10
2017-12-23T09:56:42.011Z,61.00
2017-12-23T09:59:10.446Z,61.10
2017-12-23T10:01:39.488Z,60.90
2017-12-23T10:04:08.096Z,60.90
2017-12-23T10:06:36.404Z,60.90
2017-12-23T10:09:05.434Z,60.80
2017-12-23T10:11:34.589Z,60.80
2017-12-23T10:14:02.880Z,60.80
2017-12-23T10:16:31.222Z,60.50
2017-12-23T10:18:59.498Z,60.60
2017-12-23T10:21:27.789Z,60.60
2017-12-23T10:23:56.091Z,60.50
2017-12-23T10:26:24.659Z,60.50
2017-12-23T10:28:53.257Z,60.50
2017-12-23T10:31:23.477Z,60.30
2017-12-23T10:33:51.958Z,60.50
2017-12-23T10:36:20.988Z,60.20
2017-12-23T10:38:49.289Z,60.30
2017-12-23T10:41:17.575Z,60.20
2017-12-23T10:43:45.873Z,60.20
2017-12-23T10:46:14.219Z,60.30
2017-12-23T10:48:42.543Z,60.10
2017-12-23T10:51:11.631Z,60.10
2017-12-23T10:53:40.681Z,60.10
2017-12-23T10:56:08.970Z,60.10
2017-12-23T10:58:37.303Z,60.20
2017-12-23T11:01:06.776Z,60.10
2017-12-23T11:03:35.960Z,60.00
2017-12-23T11:06:04.261Z,60.10
2017-12-23T11:08:32.613Z,60.10
2017-12-23T11:11:00.877Z,60.10
2017-12-23T11:13:29.170Z,60.20
2017-12-23T11:15:57.464Z,60.00
2017-12-23T11:18:25.748Z,60.20
2017-12-23T11:20:54.811Z,60.40
2017-12-23T11:23:23.515Z,60.40
2017-12-23T11:25:51.819Z,60.20
2017-12-23T11:28:20.077Z,60.20
2017-12-23T11:30:48.394Z,60.40
2017-12-23T11:33:16.678Z,60.40
2017-12-23T11:35:45.219Z,60.20
2017-12-23T11:38:13.489Z,60.30
2017-12-23T11:40:41.802Z,60.40
2017-12-23T11:43:10.837Z,60.20
2017-12-23T11:45:39.466Z,60.20
2017-12-23T11:48:07.759Z,60.30
2017-12-23T11:50:39.078Z,60.20
2017-12-23T11:53:07.352Z,60.20
2017-12-23T11:55:35.638Z,60.10
2017-12-23T11:58:03.953Z,60.10
2017-12-23T12:00:32.216Z,60.10
2017-12-23T12:03:02.518Z,60.30
2017-12-23T12:05:30.792Z,60.40
2017-12-23T12:07:59.805Z,60.40
2017-12-23T12:10:29.005Z,60.50
2017-12-23T12:12:57.285Z,60.50
2017-12-23T12:15:26.408Z,60.80
2017-12-23T12:17:55.432Z,60.90
2017-12-23T12:20:23.746Z,61.60
2017-12-23T12:22:53.623Z,60.90
2017-12-23T12:25:22.756Z,61.00
2017-12-23T12:27:51.780Z,61.10
2017-12-23T12:30:20.337Z,61.10
2017-12-23T12:32:49.474Z,61.20
2017-12-23T12:35:17.739Z,61.30
2017-12-23T12:37:46.025Z,61.30
2017-12-23T12:40:14.886Z,61.20
2017-12-23T12:42:43.187Z,61.30
2017-12-23T12:45:11.713Z,61.50
2017-12-23T12:47:40.251Z,61.40
2017-12-23T12:50:08.659Z,61.40
2017-12-23T12:52:37.110Z,61.40
2017-12-23T12:55:06.169Z,61.50
2017-12-23T12:57:34.505Z,61.40
2017-12-23T13:00:02.822Z,61.60
2017-12-23T13:02:31.099Z,61.60
2017-12-23T13:04:59.670Z,61.60
2017-12-23T13:07:27.934Z,61.70
2017-12-23T13:09:56.178Z,61.80
2017-12-23T13:12:24.479Z,61.90
2017-12-23T13:14:52.743Z,61.90
2017-12-23T13:17:21.034Z,61.90
2017-12-23T13:19:50.070Z,62.10
2017-12-23T13:22:18.404Z,62.20
2017-12-23T13:24:46.709Z,62.10
2017-12-23T13:27:17.750Z,62.10
2017-12-23T13:29:46.036Z,62.10
2017-12-23T13:32:14.304Z,62.10
2017-12-23T13:34:42.623Z,62.20
2017-12-23T13:37:10.888Z,62.20
2017-12-23T13:39:39.208Z,62.30
2017-12-23T13:42:07.542Z,62.20
2017-12-23T13:44:35.883Z,62.20
2017-12-23T13:47:04.141Z,62.30
2017-12-23T13:49:33.199Z,62.20
2017-12-23T13:52:02.273Z,62.40
2017-12-23T13:54:30.538Z,62.40
2017-12-23T13:56:58.816Z,62.50
2017-12-23T13:59:27.090Z,62.40
2017-12-23T14:01:58.570Z,62.50
2017-12-23T14:04:26.848Z,62.50
2017-12-23T14:06:55.118Z,62.50
2017-12-23T14:09:23.453Z,62.60
2017-12-23T14:11:51.744Z,62.70
2017-12-23T14:14:20.908Z,62.70
2017-12-23T14:16:50.158Z,62.80
2017-12-23T14:19:18.481Z,62.60
2017-12-23T14:21:46.721Z,63.20
2017-12-23T14:24:15.348Z,62.80
2017-12-23T14:26:43.618Z,63.00
2017-12-23T14:29:11.932Z,63.00
2017-12-23T14:31:40.243Z,63.00
2017-12-23T14:34:08.525Z,63.00
2017-12-23T14:36:36.829Z,62.90
2017-12-23T14:39:05.139Z,63.00
2017-12-23T14:41:33.428Z,63.10
2017-12-23T14:44:01.697Z,63.00
2017-12-23T14:46:30.284Z,63.80
2017-12-23T14:48:58.751Z,63.10
2017-12-23T14:51:27.002Z,63.10
2017-12-23T14:53:55.310Z,63.10
2017-12-23T14:56:24.351Z,63.10
2017-12-23T14:58:52.742Z,63.10
2017-12-23T15:01:20.994Z,63.10
2017-12-23T15:03:49.700Z,63.10
2017-12-23T15:06:17.959Z,63.10
2017-12-23T15:08:46.242Z,63.00
2017-12-23T15:11:14.653Z,63.10
2017-12-23T15:13:42.907Z,63.00
2017-12-23T15:16:11.186Z,63.00
2017-12-23T15:18:39.474Z,63.10
2017-12-23T15:21:08.538Z,62.90
2017-12-23T15:23:37.080Z,62.90
2017-12-23T15:26:05.395Z,62.90
2017-12-23T15:28:33.696Z,62.90
2017-12-23T15:31:01.970Z,62.90
2017-12-23T15:33:30.278Z,63.00
2017-12-23T15:35:58.563Z,63.00
2017-12-23T15:38:26.854Z,63.00
2017-12-23T15:40:55.907Z,62.80
2017-12-23T15:43:24.200Z,62.80
2017-12-23T15:45:52.459Z,62.80
2017-12-23T15:48:20.771Z,62.80
2017-12-23T15:50:49.067Z,62.80
2017-12-23T15:53:17.394Z,62.80
2017-12-23T15:55:45.665Z,62.70
2017-12-23T15:58:13.963Z,62.60
2017-12-23T16:00:42.250Z,62.70
2017-12-23T16:03:10.567Z,62.60
2017-12-23T16:05:38.829Z,62.60
2017-12-23T16:08:07.258Z,62.40
2017-12-23T16:10:35.550Z,62.50
2017-12-23T16:13:03.806Z,62.40
2017-12-23T16:15:32.088Z,62.40
2017-12-23T16:18:00.369Z,62.40
2017-12-23T16:20:28.672Z,62.30
2017-12-23T16:22:56.952Z,62.40
2017-12-23T16:25:25.326Z,62.30
2017-12-23T16:28:00.017Z,62.50
2017-12-23T16:30:28.296Z,62.20
2017-12-23T16:32:56.565Z,62.30
2017-12-23T16:35:24.853Z,62.20
2017-12-23T16:37:53.629Z,62.20
2017-12-23T16:40:21.942Z,62.10
2017-12-23T16:42:50.201Z,62.10
2017-12-23T16:45:18.494Z,62.00
2017-12-23T16:47:46.789Z,62.00
2017-12-23T16:50:16.214Z,62.00
2017-12-23T16:52:44.575Z,62.00
2017-12-23T16:55:13.618Z,62.00
2017-12-23T16:57:41.884Z,62.00
2017-12-23T17:00:10.956Z,61.90
2017-12-23T17:02:39.225Z,61.80
2017-12-23T17:05:07.546Z,61.80
2017-12-23T17:07:35.817Z,61.90
2017-12-23T17:10:04.140Z,61.90
2017-12-23T17:12:32.878Z,61.80
2017-12-23T17:15:01.232Z,61.70
2017-12-23T17:17:29.492Z,61.80
2017-12-23T17:19:57.777Z,61.70
2017-12-23T17:22:26.055Z,61.70
2017-12-23T17:24:54.360Z,61.70
2017-12-23T17:27:23.398Z,62.00
2017-12-23T17:30:03.478Z,61.50
2017-12-23T17:32:31.764Z,61.60
2017-12-23T17:35:00.062Z,61.70
2017-12-23T17:37:28.350Z,61.60
2017-12-23T17:39:57.508Z,61.70
2017-12-23T17:42:25.768Z,61.60
2017-12-23T17:44:54.053Z,61.60
2017-12-23T17:47:22.406Z,61.60
2017-12-23T17:49:52.558Z,61.70
2017-12-23T17:52:21.567Z,61.80
2017-12-23T17:54:50.633Z,61.60
2017-12-23T17:57:18.966Z,61.70
2017-12-23T17:59:48.004Z,61.50
2017-12-23T18:02:16.446Z,61.50
2017-12-23T18:04:44.693Z,61.60
2017-12-23T18:07:13.056Z,61.70
2017-12-23T18:09:41.330Z,61.60
2017-12-23T18:12:09.631Z,61.70
2017-12-23T18:14:37.899Z,61.70
2017-12-23T18:17:06.202Z,61.80
2017-12-23T18:19:35.249Z,61.70
2017-12-23T18:22:03.555Z,61.70
2017-12-23T18:24:32.167Z,61.80
2017-12-23T18:27:01.233Z,61.50
2017-12-23T18:29:29.494Z,61.60
2017-12-23T18:31:57.787Z,61.60
2017-12-23T18:34:26.064Z,61.70
2017-12-23T18:36:54.377Z,61.70
2017-12-23T18:39:22.638Z,61.70
2017-12-23T18:41:50.953Z,61.80
2017-12-23T18:44:19.221Z,61.70
2017-12-23T18:46:47.513Z,61.80
2017-12-23T18:49:15.790Z,61.80
2017-12-23T18:51:44.082Z,61.90
2017-12-23T18:54:12.461Z,61.90
2017-12-23T18:56:40.745Z,62.00
2017-12-23T18:59:09.051Z,61.90
2017-12-23T19:01:37.346Z,61.90
2017-12-23T19:04:07.365Z,62.20
2017-12-23T19:06:36.048Z,61.90
2017-12-23T19:09:04.381Z,61.90
2017-12-23T19:11:32.645Z,61.90
2017-12-23T19:14:00.945Z,61.90
2017-12-23T19:16:42.205Z,61.80
2017-12-23T19:19:10.465Z,61.90
2017-12-23T19:21:38.734Z,61.80
2017-12-23T19:24:07.893Z,62.00
2017-12-23T19:26:36.166Z,62.10
2017-12-23T19:29:04.583Z,62.10
2017-12-23T19:31:33.652Z,62.00
2017-12-23T19:34:01.960Z,62.00
2017-12-23T19:36:31.004Z,62.00
2017-12-23T19:38:59.318Z,62.10
2017-12-23T19:41:27.593Z,62.10
2017-12-23T19:43:55.932Z,62.10
2017-12-23T19:46:24.212Z,62.00
2017-12-23T19:48:52.522Z,62.10
2017-12-23T19:51:20.837Z,62.20
2017-12-23T19:53:49.144Z,62.00
2017-12-23T19:56:17.457Z,62.10
2017-12-23T19:58:45.751Z,62.10
2017-12-23T20:01:14.068Z,62.10
2017-12-23T20:03:42.561Z,62.00
2017-12-23T20:06:10.853Z,62.00
2017-12-23T20:08:39.119Z,62.00
2017-12-23T20:11:07.405Z,62.00
2017-12-23T20:13:35.720Z,62.00
2017-12-23T20:16:04.011Z,62.00
2017-12-23T20:18:33.123Z,62.10
2017-12-23T20:21:01.391Z,62.10
2017-12-23T20:23:29.985Z,62.10
2017-12-23T20:25:59.044Z,62.00
2017-12-23T20:28:27.878Z,62.00
2017-12-23T20:30:56.150Z,62.00
2017-12-23T20:33:25.652Z,61.90
2017-12-23T20:35:54.676Z,61.90
2017-12-23T20:38:22.995Z,61.90
2017-12-23T20:40:51.304Z,61.90
2017-12-23T20:43:19.613Z,61.80
2017-12-23T20:45:47.938Z,61.80
2017-12-23T20:48:16.224Z,61.80
2017-12-23T20:50:45.312Z,61.80
2017-12-23T20:53:15.019Z,62.00
2017-12-23T20:55:43.315Z,62.00
2017-12-23T20:58:12.356Z,61.80
2017-12-23T21:00:40.662Z,61.80
2017-12-23T21:03:08.938Z,61.90
2017-12-23T21:05:37.277Z,61.90
2017-12-23T21:08:05.566Z,61.90
2017-12-23T21:10:33.873Z,62.00
2017-12-23T21:13:02.146Z,61.90
2017-12-23T21:15:30.435Z,62.10
2017-12-23T21:17:58.707Z,62.00
2017-12-23T21:20:26.983Z,62.10
2017-12-23T21:22:55.254Z,62.10
2017-12-23T21:25:24.330Z,62.40
2017-12-23T21:27:52.609Z,62.30
2017-12-23T21:30:20.906Z,62.20
2017-12-23T21:32:49.328Z,62.30
2017-12-23T21:35:18.412Z,62.30
2017-12-23T21:37:46.679Z,62.30
2017-12-23T21:40:14.967Z,62.40
2017-12-23T21:42:43.989Z,62.30
2017-12-23T21:45:12.337Z,62.40
2017-12-23T21:47:41.390Z,62.40
2017-12-23T21:50:09.704Z,62.40
2017-12-23T21:52:37.977Z,62.40
2017-12-23T21:55:06.295Z,62.50
2017-12-23T21:57:34.590Z,62.40
2017-12-23T22:00:02.883Z,62.60
2017-12-23T22:02:31.171Z,62.40
2017-12-23T22:04:59.450Z,62.40
2017-12-23T22:07:27.798Z,62.30
2017-12-23T22:09:56.350Z,62.40
2017-12-23T22:12:25.527Z,62.60
2017-12-23T22:14:53.807Z,62.20
2017-12-23T22:17:22.114Z,62.30
2017-12-23T22:19:50.439Z,62.30
2017-12-23T22:22:18.891Z,62.30
2017-12-23T22:24:47.148Z,62.20
2017-12-23T22:27:16.218Z,62.20
2017-12-23T22:29:44.493Z,62.20
2017-12-23T22:32:12.810Z,62.30
2017-12-23T22:34:41.072Z,62.30
2017-12-23T22:37:09.403Z,62.30
2017-12-23T22:39:37.657Z,62.30
2017-12-23T22:42:05.947Z,62.30
2017-12-23T22:44:34.213Z,62.30
2017-12-23T22:47:02.502Z,62.30
2017-12-23T22:49:30.775Z,62.30
2017-12-23T22:51:59.163Z,62.30
2017-12-23T22:54:27.425Z,62.30
2017-12-23T22:56:55.717Z,62.20
2017-12-23T22:59:24.013Z,62.20
2017-12-23T23:01:52.317Z,62.30
2017-12-23T23:04:20.687Z,62.30
2017-12-23T23:06:49.248Z,62.30
2017-12-23T23:09:17.522Z,62.20
2017-12-23T23:11:45.790Z,62.30
2017-12-23T23:14:14.074Z,62.20
2017-12-23T23:16:42.338Z,62.10
2017-12-23T23:19:10.675Z,62.10
2017-12-23T23:21:38.958Z,62.20
2017-12-23T23:24:08.308Z,62.10
2017-12-23T23:26:36.582Z,62.20
2017-12-23T23:29:04.897Z,62.10
2017-12-23T23:31:33.170Z,62.10
2017-12-23T23:34:01.425Z,62.00
2017-12-23T23:36:30.028Z,62.10
2017-12-23T23:38:58.316Z,62.10
2017-12-23T23:41:26.587Z,62.10
2017-12-23T23:43:54.873Z,62.60
2017-12-23T23:46:23.143Z,62.20
2017-12-23T23:48:51.428Z,62.30
2017-12-23T23:51:19.696Z,62.40
2017-12-23T23:53:48.402Z,62.30
2017-12-23T23:56:16.669Z,62.30
2017-12-23T23:58:45.682Z,62.30
